sensor_id;sensor_type;location;lat;lon;timestamp;temperature;humidity
28725;DHT22;43472;48.980;9.646;2023-05-31T00:02:16;14.50;94.00
28725;DHT22;43472;48.980;9.646;2023-05-31T00:07:18;14.40;93.70
28725;DHT22;43472;48.980;9.646;2023-05-31T00:12:21;14.30;93.90
28725;DHT22;43472;48.980;9.646;2023-05-31T00:17:23;14.40;94.10
28725;DHT22;43472;48.980;9.646;2023-05-31T00:27:47;14.30;93.70
28725;DHT22;43472;48.980;9.646;2023-05-31T00:47:59;13.80;94.40
28725;DHT22;43472;48.980;9.646;2023-05-31T00:53:04;13.70;95.00
28725;DHT22;43472;48.980;9.646;2023-05-31T00:58:07;13.60;95.60
28725;DHT22;43472;48.980;9.646;2023-05-31T01:13:38;13.50;95.00
28725;DHT22;43472;48.980;9.646;2023-05-31T01:18:45;13.40;95.60
28725;DHT22;43472;48.980;9.646;2023-05-31T01:24:16;13.40;95.40
28725;DHT22;43472;48.980;9.646;2023-05-31T01:29:26;13.40;95.50
28725;DHT22;43472;48.980;9.646;2023-05-31T01:49:37;13.40;95.10
28725;DHT22;43472;48.980;9.646;2023-05-31T02:19:52;13.10;95.70
28725;DHT22;43472;48.980;9.646;2023-05-31T02:24:55;12.90;96.00
28725;DHT22;43472;48.980;9.646;2023-05-31T02:29:58;12.80;96.50
28725;DHT22;43472;48.980;9.646;2023-05-31T03:00:18;12.50;97.10
28725;DHT22;43472;48.980;9.646;2023-05-31T03:05:21;12.30;97.40
28725;DHT22;43472;48.980;9.646;2023-05-31T03:35:41;12.30;97.50
28725;DHT22;43472;48.980;9.646;2023-05-31T03:45:46;12.20;97.90
28725;DHT22;43472;48.980;9.646;2023-05-31T05:11:38;12.70;99.50
28725;DHT22;43472;48.980;9.646;2023-05-31T05:16:40;12.80;99.10
28725;DHT22;43472;48.980;9.646;2023-05-31T05:21:44;12.80;99.60
28725;DHT22;43472;48.980;9.646;2023-05-31T05:46:57;14.60;95.50
28725;DHT22;43472;48.980;9.646;2023-05-31T05:57:01;15.20;93.30
28725;DHT22;43472;48.980;9.646;2023-05-31T06:12:15;15.90;92.10
28725;DHT22;43472;48.980;9.646;2023-05-31T06:23:07;16.30;91.90
28725;DHT22;43472;48.980;9.646;2023-05-31T06:33:12;16.60;91.50
28725;DHT22;43472;48.980;9.646;2023-05-31T06:38:14;16.60;91.60
28725;DHT22;43472;48.980;9.646;2023-05-31T06:43:18;16.90;91.60
28725;DHT22;43472;48.980;9.646;2023-05-31T06:48:30;17.30;91.30
28725;DHT22;43472;48.980;9.646;2023-05-31T06:53:55;17.40;90.50
28725;DHT22;43472;48.980;9.646;2023-05-31T06:58:57;17.60;90.60
28725;DHT22;43472;48.980;9.646;2023-05-31T07:09:22;17.70;90.40
28725;DHT22;43472;48.980;9.646;2023-05-31T07:14:29;18.20;90.40
28725;DHT22;43472;48.980;9.646;2023-05-31T07:24:50;18.40;89.80
28725;DHT22;43472;48.980;9.646;2023-05-31T07:30:19;18.70;88.20
28725;DHT22;43472;48.980;9.646;2023-05-31T07:50:39;19.50;85.20
28725;DHT22;43472;48.980;9.646;2023-05-31T07:55:57;19.80;82.90
28725;DHT22;43472;48.980;9.646;2023-05-31T08:06:36;20.00;81.50
28725;DHT22;43472;48.980;9.646;2023-05-31T08:11:40;21.50;81.90
28725;DHT22;43472;48.980;9.646;2023-05-31T08:16:45;20.30;80.80
28725;DHT22;43472;48.980;9.646;2023-05-31T08:21:50;20.50;78.10
28725;DHT22;43472;48.980;9.646;2023-05-31T08:32:08;20.80;78.30
28725;DHT22;43472;48.980;9.646;2023-05-31T08:37:12;22.60;77.90
28725;DHT22;43472;48.980;9.646;2023-05-31T08:42:24;23.60;78.50
28725;DHT22;43472;48.980;9.646;2023-05-31T08:47:34;20.30;76.40
28725;DHT22;43472;48.980;9.646;2023-05-31T08:52:39;22.00;76.40
28725;DHT22;43472;48.980;9.646;2023-05-31T08:57:44;22.20;75.70
28725;DHT22;43472;48.980;9.646;2023-05-31T09:02:51;22.50;76.60
28725;DHT22;43472;48.980;9.646;2023-05-31T09:13:15;22.70;76.80
28725;DHT22;43472;48.980;9.646;2023-05-31T09:18:30;22.80;78.00
28725;DHT22;43472;48.980;9.646;2023-05-31T09:29:19;23.00;74.60
28725;DHT22;43472;48.980;9.646;2023-05-31T09:34:27;23.10;71.40
28725;DHT22;43472;48.980;9.646;2023-05-31T09:49:53;23.50;70.90
28725;DHT22;43472;48.980;9.646;2023-05-31T09:55:10;22.30;70.30
28725;DHT22;43472;48.980;9.646;2023-05-31T10:00:18;24.30;70.50
28725;DHT22;43472;48.980;9.646;2023-05-31T10:05:28;24.30;67.30
28725;DHT22;43472;48.980;9.646;2023-05-31T10:10:37;24.30;66.90
28725;DHT22;43472;48.980;9.646;2023-05-31T10:15:47;24.30;66.60
28725;DHT22;43472;48.980;9.646;2023-05-31T10:21:18;24.50;66.70
28725;DHT22;43472;48.980;9.646;2023-05-31T10:26:49;24.70;67.70
28725;DHT22;43472;48.980;9.646;2023-05-31T10:32:08;25.10;64.00
28725;DHT22;43472;48.980;9.646;2023-05-31T10:37:13;25.50;65.00
28725;DHT22;43472;48.980;9.646;2023-05-31T10:47:35;25.50;64.70
28725;DHT22;43472;48.980;9.646;2023-05-31T10:57:55;26.00;60.60
28725;DHT22;43472;48.980;9.646;2023-05-31T11:03:01;26.00;61.30
28725;DHT22;43472;48.980;9.646;2023-05-31T11:08:12;26.70;60.80
28725;DHT22;43472;48.980;9.646;2023-05-31T11:13:18;26.70;62.10
28725;DHT22;43472;48.980;9.646;2023-05-31T11:18:26;26.60;59.90
28725;DHT22;43472;48.980;9.646;2023-05-31T11:23:29;26.40;57.60
28725;DHT22;43472;48.980;9.646;2023-05-31T11:29:01;26.60;58.50
28725;DHT22;43472;48.980;9.646;2023-05-31T11:34:53;26.50;57.90
28725;DHT22;43472;48.980;9.646;2023-05-31T11:40:10;26.70;58.90
28725;DHT22;43472;48.980;9.646;2023-05-31T11:45:22;27.50;56.30
28725;DHT22;43472;48.980;9.646;2023-05-31T11:50:31;27.20;56.00
28725;DHT22;43472;48.980;9.646;2023-05-31T12:00:44;27.30;56.40
28725;DHT22;43472;48.980;9.646;2023-05-31T12:05:50;27.40;56.50
28725;DHT22;43472;48.980;9.646;2023-05-31T12:11:01;27.70;55.40
28725;DHT22;43472;48.980;9.646;2023-05-31T12:21:09;27.30;55.20
28725;DHT22;43472;48.980;9.646;2023-05-31T12:31:24;27.90;53.50
28725;DHT22;43472;48.980;9.646;2023-05-31T12:36:41;27.70;54.00
28725;DHT22;43472;48.980;9.646;2023-05-31T12:41:50;28.10;53.70
28725;DHT22;43472;48.980;9.646;2023-05-31T12:46:59;28.00;54.20
28725;DHT22;43472;48.980;9.646;2023-05-31T12:52:07;28.20;54.20
28725;DHT22;43472;48.980;9.646;2023-05-31T12:57:14;28.60;54.10
28725;DHT22;43472;48.980;9.646;2023-05-31T13:02:20;28.50;52.50
28725;DHT22;43472;48.980;9.646;2023-05-31T13:07:33;28.80;52.60
28725;DHT22;43472;48.980;9.646;2023-05-31T13:12:40;28.00;53.40
28725;DHT22;43472;48.980;9.646;2023-05-31T13:17:49;28.70;50.80
28725;DHT22;43472;48.980;9.646;2023-05-31T13:28:00;28.80;50.80
28725;DHT22;43472;48.980;9.646;2023-05-31T13:48:15;29.10;50.50
28725;DHT22;43472;48.980;9.646;2023-05-31T13:53:18;29.10;49.10
28725;DHT22;43472;48.980;9.646;2023-05-31T13:58:22;29.20;49.80
28725;DHT22;43472;48.980;9.646;2023-05-31T14:03:25;29.70;50.50
28725;DHT22;43472;48.980;9.646;2023-05-31T14:08:27;29.60;50.80
28725;DHT22;43472;48.980;9.646;2023-05-31T14:18:33;28.90;51.30
28725;DHT22;43472;48.980;9.646;2023-05-31T14:23:35;29.10;50.80
28725;DHT22;43472;48.980;9.646;2023-05-31T14:28:37;28.70;49.80
28725;DHT22;43472;48.980;9.646;2023-05-31T14:33:39;28.70;50.30
28725;DHT22;43472;48.980;9.646;2023-05-31T14:43:46;28.80;51.10
28725;DHT22;43472;48.980;9.646;2023-05-31T14:48:48;28.50;51.90
28725;DHT22;43472;48.980;9.646;2023-05-31T14:53:51;28.50;52.50
28725;DHT22;43472;48.980;9.646;2023-05-31T14:58:56;29.10;50.90
28725;DHT22;43472;48.980;9.646;2023-05-31T15:04:00;28.50;50.40
28725;DHT22;43472;48.980;9.646;2023-05-31T15:14:08;28.50;52.60
28725;DHT22;43472;48.980;9.646;2023-05-31T15:19:11;28.70;52.80
28725;DHT22;43472;48.980;9.646;2023-05-31T15:24:15;28.40;54.80
28725;DHT22;43472;48.980;9.646;2023-05-31T15:34:19;27.90;52.90
28725;DHT22;43472;48.980;9.646;2023-05-31T15:49:26;27.60;53.60
28725;DHT22;43472;48.980;9.646;2023-05-31T15:54:29;27.90;54.70
28725;DHT22;43472;48.980;9.646;2023-05-31T15:59:31;27.60;54.20
28725;DHT22;43472;48.980;9.646;2023-05-31T16:04:36;27.30;56.00
28725;DHT22;43472;48.980;9.646;2023-05-31T16:09:38;27.00;55.50
28725;DHT22;43472;48.980;9.646;2023-05-31T16:14:41;27.00;55.40
28725;DHT22;43472;48.980;9.646;2023-05-31T16:24:49;26.50;57.20
28725;DHT22;43472;48.980;9.646;2023-05-31T16:29:52;26.40;56.90
28725;DHT22;43472;48.980;9.646;2023-05-31T16:34:55;26.20;57.10
28725;DHT22;43472;48.980;9.646;2023-05-31T16:50:05;25.50;57.40
28725;DHT22;43472;48.980;9.646;2023-05-31T16:55:08;25.20;56.50
28725;DHT22;43472;48.980;9.646;2023-05-31T17:00:11;25.20;58.60
28725;DHT22;43472;48.980;9.646;2023-05-31T17:05:13;25.10;57.70
28725;DHT22;43472;48.980;9.646;2023-05-31T17:10:17;25.10;58.90
28725;DHT22;43472;48.980;9.646;2023-05-31T17:15:20;24.80;58.00
28725;DHT22;43472;48.980;9.646;2023-05-31T17:20:22;24.80;58.60
28725;DHT22;43472;48.980;9.646;2023-05-31T17:25:24;24.70;59.60
28725;DHT22;43472;48.980;9.646;2023-05-31T17:30:27;24.50;59.60
28725;DHT22;43472;48.980;9.646;2023-05-31T17:35:29;24.40;59.60
28725;DHT22;43472;48.980;9.646;2023-05-31T17:40:31;24.30;59.60
28725;DHT22;43472;48.980;9.646;2023-05-31T17:45:33;24.20;60.60
28725;DHT22;43472;48.980;9.646;2023-05-31T17:50:37;24.00;60.90
28725;DHT22;43472;48.980;9.646;2023-05-31T17:55:39;24.00;64.80
28725;DHT22;43472;48.980;9.646;2023-05-31T18:05:45;23.40;70.00
28725;DHT22;43472;48.980;9.646;2023-05-31T18:10:47;23.10;68.30
28725;DHT22;43472;48.980;9.646;2023-05-31T18:15:50;23.00;74.40
28725;DHT22;43472;48.980;9.646;2023-05-31T18:30:59;22.40;74.20
28725;DHT22;43472;48.980;9.646;2023-05-31T18:36:04;22.20;70.00
28725;DHT22;43472;48.980;9.646;2023-05-31T18:46:18;21.60;77.00
28725;DHT22;43472;48.980;9.646;2023-05-31T18:51:20;21.30;77.80
28725;DHT22;43472;48.980;9.646;2023-05-31T18:56:24;21.20;78.50
28725;DHT22;43472;48.980;9.646;2023-05-31T19:06:29;21.00;77.00
28725;DHT22;43472;48.980;9.646;2023-05-31T19:11:32;20.60;77.50
28725;DHT22;43472;48.980;9.646;2023-05-31T19:16:33;20.60;78.50
28725;DHT22;43472;48.980;9.646;2023-05-31T19:21:37;20.30;78.90
28725;DHT22;43472;48.980;9.646;2023-05-31T19:26:40;20.20;81.80
28725;DHT22;43472;48.980;9.646;2023-05-31T19:31:43;20.20;81.30
28725;DHT22;43472;48.980;9.646;2023-05-31T19:41:51;19.80;82.30
28725;DHT22;43472;48.980;9.646;2023-05-31T19:46:55;19.50;82.50
28725;DHT22;43472;48.980;9.646;2023-05-31T19:57:00;19.30;85.70
28725;DHT22;43472;48.980;9.646;2023-05-31T20:02:06;19.30;86.60
28725;DHT22;43472;48.980;9.646;2023-05-31T20:12:10;18.90;86.90
28725;DHT22;43472;48.980;9.646;2023-05-31T20:17:16;18.70;87.40
28725;DHT22;43472;48.980;9.646;2023-05-31T20:27:50;18.30;89.70
28725;DHT22;43472;48.980;9.646;2023-05-31T20:33:02;18.10;90.70
28725;DHT22;43472;48.980;9.646;2023-05-31T20:48:24;17.80;90.50
28725;DHT22;43472;48.980;9.646;2023-05-31T20:53:29;17.70;90.90
28725;DHT22;43472;48.980;9.646;2023-05-31T21:04:09;17.50;91.50
28725;DHT22;43472;48.980;9.646;2023-05-31T21:09:13;17.50;91.30
28725;DHT22;43472;48.980;9.646;2023-05-31T21:29:25;17.00;92.70
28725;DHT22;43472;48.980;9.646;2023-05-31T21:34:27;16.90;92.70
28725;DHT22;43472;48.980;9.646;2023-05-31T21:39:29;16.80;92.70
28725;DHT22;43472;48.980;9.646;2023-05-31T21:44:32;16.70;92.50
28725;DHT22;43472;48.980;9.646;2023-05-31T21:49:34;16.60;92.60
28725;DHT22;43472;48.980;9.646;2023-05-31T21:54:38;16.50;92.60
28725;DHT22;43472;48.980;9.646;2023-05-31T21:59:40;16.30;93.10
28725;DHT22;43472;48.980;9.646;2023-05-31T22:04:42;16.30;93.30
28725;DHT22;43472;48.980;9.646;2023-05-31T22:09:44;16.20;93.70
28725;DHT22;43472;48.980;9.646;2023-05-31T22:14:46;16.20;94.10
28725;DHT22;43472;48.980;9.646;2023-05-31T22:19:48;16.00;94.00
28725;DHT22;43472;48.980;9.646;2023-05-31T22:24:55;15.90;94.20
28725;DHT22;43472;48.980;9.646;2023-05-31T22:30:13;15.80;94.20
28725;DHT22;43472;48.980;9.646;2023-05-31T22:35:15;15.80;94.70
28725;DHT22;43472;48.980;9.646;2023-05-31T22:50:27;15.40;95.00
28725;DHT22;43472;48.980;9.646;2023-05-31T22:55:29;15.40;95.70
28725;DHT22;43472;48.980;9.646;2023-05-31T23:05:33;15.20;95.50
28725;DHT22;43472;48.980;9.646;2023-05-31T23:30:48;14.70;96.60
28725;DHT22;43472;48.980;9.646;2023-05-31T23:35:50;14.70;96.40
28725;DHT22;43472;48.980;9.646;2023-05-31T23:40:52;14.60;96.30
